sensor_id;sensor_type;location;lat;lon;timestamp;pressure;altitude;pressure_sealevel;temperature;humidity
39773;BME280;25451;51.960;6.250;2023-04-07T00:00:47;101231.13;;;9.93;69.90
39773;BME280;25451;51.960;6.250;2023-04-07T00:03:12;101235.09;;;9.97;70.05
39773;BME280;25451;51.960;6.250;2023-04-07T00:05:38;101244.59;;;10.01;69.75
39773;BME280;25451;51.960;6.250;2023-04-07T00:08:03;101232.94;;;9.99;70.06
39773;BME280;25451;51.960;6.250;2023-04-07T00:10:28;101227.44;;;9.99;69.99
39773;BME280;25451;51.960;6.250;2023-04-07T00:12:54;101231.25;;;9.98;69.79
39773;BME280;25451;51.960;6.250;2023-04-07T00:15:19;101230.81;;;10.01;70.13
39773;BME280;25451;51.960;6.250;2023-04-07T00:17:45;101235.47;;;10.01;70.03
39773;BME280;25451;51.960;6.250;2023-04-07T00:20:11;101246.03;;;10.04;69.92
39773;BME280;25451;51.960;6.250;2023-04-07T00:22:36;101243.50;;;10.02;70.04
39773;BME280;25451;51.960;6.250;2023-04-07T00:25:01;101229.09;;;10.00;69.92
39773;BME280;25451;51.960;6.250;2023-04-07T00:27:27;101239.44;;;10.05;69.94
39773;BME280;25451;51.960;6.250;2023-04-07T00:29:52;101241.34;;;10.04;69.91
39773;BME280;25451;51.960;6.250;2023-04-07T00:32:20;101237.97;;;10.02;69.78
39773;BME280;25451;51.960;6.250;2023-04-07T00:34:45;101253.59;;;10.09;70.01
39773;BME280;25451;51.960;6.250;2023-04-07T00:37:10;101237.53;;;10.06;69.69
39773;BME280;25451;51.960;6.250;2023-04-07T00:39:36;101246.19;;;10.09;69.89
39773;BME280;25451;51.960;6.250;2023-04-07T00:42:02;101231.41;;;10.03;69.78
39773;BME280;25451;51.960;6.250;2023-04-07T00:44:28;101237.69;;;10.11;69.91
39773;BME280;25451;51.960;6.250;2023-04-07T00:46:53;101245.13;;;10.10;69.89
39773;BME280;25451;51.960;6.250;2023-04-07T00:49:19;101225.41;;;10.07;70.05
39773;BME280;25451;51.960;6.250;2023-04-07T00:51:44;101233.69;;;10.07;70.01
39773;BME280;25451;51.960;6.250;2023-04-07T00:54:10;101229.63;;;10.09;70.09
39773;BME280;25451;51.960;6.250;2023-04-07T00:56:36;101235.56;;;10.13;70.02
39773;BME280;25451;51.960;6.250;2023-04-07T00:59:03;101245.53;;;10.14;70.04
39773;BME280;25451;51.960;6.250;2023-04-07T01:01:39;101232.78;;;10.13;69.83
39773;BME280;25451;51.960;6.250;2023-04-07T01:04:18;101234.50;;;10.14;69.96
39773;BME280;25451;51.960;6.250;2023-04-07T01:06:48;101240.63;;;10.16;69.97
39773;BME280;25451;51.960;6.250;2023-04-07T01:09:29;101237.88;;;10.16;69.85
39773;BME280;25451;51.960;6.250;2023-04-07T01:12:15;101245.03;;;10.17;69.97
39773;BME280;25451;51.960;6.250;2023-04-07T01:14:46;101238.91;;;10.15;70.00
39773;BME280;25451;51.960;6.250;2023-04-07T01:17:15;101234.09;;;10.10;70.10
39773;BME280;25451;51.960;6.250;2023-04-07T01:19:46;101244.00;;;10.18;70.14
39773;BME280;25451;51.960;6.250;2023-04-07T01:22:17;101241.44;;;10.16;70.31
39773;BME280;25451;51.960;6.250;2023-04-07T01:27:59;101249.50;;;10.18;70.04
39773;BME280;25451;51.960;6.250;2023-04-07T01:30:35;101251.19;;;10.19;70.11
39773;BME280;25451;51.960;6.250;2023-04-07T01:33:03;101237.88;;;10.16;69.93
39773;BME280;25451;51.960;6.250;2023-04-07T01:35:32;101230.69;;;10.08;70.13
39773;BME280;25451;51.960;6.250;2023-04-07T01:37:59;101252.88;;;10.20;70.16
39773;BME280;25451;51.960;6.250;2023-04-07T01:40:26;101249.50;;;10.18;70.21
39773;BME280;25451;51.960;6.250;2023-04-07T01:42:53;101243.38;;;10.16;70.38
39773;BME280;25451;51.960;6.250;2023-04-07T01:45:19;101245.41;;;10.20;70.52
39773;BME280;25451;51.960;6.250;2023-04-07T01:47:45;101247.72;;;10.23;70.26
39773;BME280;25451;51.960;6.250;2023-04-07T01:50:11;101249.88;;;10.21;70.51
39773;BME280;25451;51.960;6.250;2023-04-07T01:52:38;101248.19;;;10.20;70.24
39773;BME280;25451;51.960;6.250;2023-04-07T01:55:05;101252.41;;;10.23;70.36
39773;BME280;25451;51.960;6.250;2023-04-07T01:57:30;101241.84;;;10.20;70.38
39773;BME280;25451;51.960;6.250;2023-04-07T01:59:56;101254.72;;;10.26;70.70
39773;BME280;25451;51.960;6.250;2023-04-07T02:02:21;101244.72;;;10.25;70.57
39773;BME280;25451;51.960;6.250;2023-04-07T02:04:54;101246.28;;;10.21;70.55
39773;BME280;25451;51.960;6.250;2023-04-07T02:07:28;101248.34;;;10.25;70.67
39773;BME280;25451;51.960;6.250;2023-04-07T02:09:57;101243.06;;;10.24;70.95
39773;BME280;25451;51.960;6.250;2023-04-07T02:12:25;101240.75;;;10.21;70.82
39773;BME280;25451;51.960;6.250;2023-04-07T02:14:52;101244.13;;;10.23;70.96
39773;BME280;25451;51.960;6.250;2023-04-07T02:17:18;101243.88;;;10.24;70.92
39773;BME280;25451;51.960;6.250;2023-04-07T02:19:44;101219.63;;;10.15;71.21
39773;BME280;25451;51.960;6.250;2023-04-07T02:22:11;101227.19;;;10.19;70.98
39773;BME280;25451;51.960;6.250;2023-04-07T02:24:40;101239.91;;;10.20;71.47
39773;BME280;25451;51.960;6.250;2023-04-07T02:27:06;101249.28;;;10.19;71.26
39773;BME280;25451;51.960;6.250;2023-04-07T02:29:31;101250.56;;;10.17;71.61
39773;BME280;25451;51.960;6.250;2023-04-07T02:31:57;101257.78;;;10.18;71.67
39773;BME280;25451;51.960;6.250;2023-04-07T02:34:22;101244.28;;;10.10;71.55
39773;BME280;25451;51.960;6.250;2023-04-07T02:36:47;101242.16;;;10.12;71.48
39773;BME280;25451;51.960;6.250;2023-04-07T02:39:13;101248.94;;;10.09;71.79
39773;BME280;25451;51.960;6.250;2023-04-07T02:41:38;101257.78;;;10.18;71.72
39773;BME280;25451;51.960;6.250;2023-04-07T02:44:03;101268.81;;;10.18;71.71
39773;BME280;25451;51.960;6.250;2023-04-07T02:46:29;101266.25;;;10.16;71.75
39773;BME280;25451;51.960;6.250;2023-04-07T02:48:54;101265.91;;;10.13;72.01
39773;BME280;25451;51.960;6.250;2023-04-07T02:51:19;101271.16;;;10.14;71.79
39773;BME280;25451;51.960;6.250;2023-04-07T02:53:45;101271.41;;;10.13;71.80
39773;BME280;25451;51.960;6.250;2023-04-07T02:56:10;101269.25;;;10.15;71.91
39773;BME280;25451;51.960;6.250;2023-04-07T02:58:35;101278.63;;;10.14;72.08
39773;BME280;25451;51.960;6.250;2023-04-07T03:01:00;101271.41;;;10.13;71.88
39773;BME280;25451;51.960;6.250;2023-04-07T03:03:26;101266.34;;;10.10;72.10
39773;BME280;25451;51.960;6.250;2023-04-07T03:05:51;101257.53;;;10.01;72.09
39773;BME280;25451;51.960;6.250;2023-04-07T03:08:16;101270.56;;;10.12;72.12
39773;BME280;25451;51.960;6.250;2023-04-07T03:10:42;101275.03;;;10.13;71.88
39773;BME280;25451;51.960;6.250;2023-04-07T03:13:08;101261.88;;;10.09;72.00
39773;BME280;25451;51.960;6.250;2023-04-07T03:15:33;101275.88;;;10.14;72.01
39773;BME280;25451;51.960;6.250;2023-04-07T03:17:58;101271.16;;;10.14;72.01
39773;BME280;25451;51.960;6.250;2023-04-07T03:20:24;101266.97;;;10.12;72.11
39773;BME280;25451;51.960;6.250;2023-04-07T03:22:49;101271.41;;;10.13;72.04
39773;BME280;25451;51.960;6.250;2023-04-07T03:25:15;101270.56;;;10.12;72.06
39773;BME280;25451;51.960;6.250;2023-04-07T03:27:40;101272.50;;;10.12;72.09
39773;BME280;25451;51.960;6.250;2023-04-07T03:30:06;101271.00;;;10.09;72.19
39773;BME280;25451;51.960;6.250;2023-04-07T03:32:32;101273.75;;;10.09;72.31
39773;BME280;25451;51.960;6.250;2023-04-07T03:34:57;101270.16;;;10.09;72.59
39773;BME280;25451;51.960;6.250;2023-04-07T03:37:23;101267.25;;;10.03;72.28
39773;BME280;25451;51.960;6.250;2023-04-07T03:39:48;101273.41;;;10.06;72.35
39773;BME280;25451;51.960;6.250;2023-04-07T03:42:13;101278.91;;;10.06;72.46
39773;BME280;25451;51.960;6.250;2023-04-07T03:44:39;101278.66;;;10.07;72.54
39773;BME280;25451;51.960;6.250;2023-04-07T03:47:04;101268.09;;;10.04;72.66
39773;BME280;25451;51.960;6.250;2023-04-07T03:49:30;101275.06;;;10.07;72.51
39773;BME280;25451;51.960;6.250;2023-04-07T03:51:56;101292.00;;;10.10;72.46
39773;BME280;25451;51.960;6.250;2023-04-07T03:54:21;101283.34;;;10.07;72.55
39773;BME280;25451;51.960;6.250;2023-04-07T03:56:47;101276.97;;;10.06;72.62
39773;BME280;25451;51.960;6.250;2023-04-07T03:59:12;101291.00;;;10.04;72.66
39773;BME280;25451;51.960;6.250;2023-04-07T04:01:38;101297.72;;;10.09;72.48
39773;BME280;25451;51.960;6.250;2023-04-07T04:04:03;101293.91;;;10.10;72.34
39773;BME280;25451;51.960;6.250;2023-04-07T04:06:28;101297.72;;;10.09;72.69
39773;BME280;25451;51.960;6.250;2023-04-07T04:08:54;101293.06;;;10.09;72.44
39773;BME280;25451;51.960;6.250;2023-04-07T04:11:19;101298.38;;;10.11;72.56
39773;BME280;25451;51.960;6.250;2023-04-07T04:13:46;101285.94;;;10.01;72.38
39773;BME280;25451;51.960;6.250;2023-04-07T04:16:11;101287.63;;;10.02;72.56
39773;BME280;25451;51.960;6.250;2023-04-07T04:18:36;101297.31;;;10.12;72.63
39773;BME280;25451;51.960;6.250;2023-04-07T04:21:02;101291.00;;;10.04;72.29
39773;BME280;25451;51.960;6.250;2023-04-07T04:23:27;101292.69;;;10.06;72.59
39773;BME280;25451;51.960;6.250;2023-04-07T04:25:52;101308.34;;;10.12;72.20
39773;BME280;25451;51.960;6.250;2023-04-07T04:28:17;101282.59;;;9.99;72.34
39773;BME280;25451;51.960;6.250;2023-04-07T04:30:43;101302.84;;;10.12;72.50
39773;BME280;25451;51.960;6.250;2023-04-07T04:33:08;101305.59;;;10.12;72.44
39773;BME280;25451;51.960;6.250;2023-04-07T04:35:33;101296.75;;;10.03;72.34
39773;BME280;25451;51.960;6.250;2023-04-07T04:37:59;101299.88;;;10.07;72.36
39773;BME280;25451;51.960;6.250;2023-04-07T04:40:24;101305.41;;;10.07;72.47
39773;BME280;25451;51.960;6.250;2023-04-07T04:42:50;101311.31;;;10.10;72.11
39773;BME280;25451;51.960;6.250;2023-04-07T04:45:15;101315.53;;;10.13;72.34
39773;BME280;25451;51.960;6.250;2023-04-07T04:47:40;101310.47;;;10.10;72.31
39773;BME280;25451;51.960;6.250;2023-04-07T04:50:08;101316.63;;;10.12;72.46
39773;BME280;25451;51.960;6.250;2023-04-07T04:52:34;101313.03;;;10.11;72.20
39773;BME280;25451;51.960;6.250;2023-04-07T04:54:59;101307.72;;;10.10;72.02
39773;BME280;25451;51.960;6.250;2023-04-07T04:57:25;101305.25;;;10.01;71.87
39773;BME280;25451;51.960;6.250;2023-04-07T04:59:50;101314.28;;;10.09;72.18
39773;BME280;25451;51.960;6.250;2023-04-07T05:02:15;101318.94;;;10.08;72.17
39773;BME280;25451;51.960;6.250;2023-04-07T05:04:41;101324.06;;;10.11;72.19
39773;BME280;25451;51.960;6.250;2023-04-07T05:07:06;101322.56;;;10.09;71.87
39773;BME280;25451;51.960;6.250;2023-04-07T05:09:31;101335.09;;;10.11;71.93
39773;BME280;25451;51.960;6.250;2023-04-07T05:11:57;101326.16;;;10.09;72.07
39773;BME280;25451;51.960;6.250;2023-04-07T05:14:22;101321.50;;;10.10;71.96
39773;BME280;25451;51.960;6.250;2023-04-07T05:16:47;101328.06;;;10.09;72.07
39773;BME280;25451;51.960;6.250;2023-04-07T05:19:13;101302.63;;;9.88;72.22
39773;BME280;25451;51.960;6.250;2023-04-07T05:21:38;101339.75;;;10.11;72.26
39773;BME280;25451;51.960;6.250;2023-04-07T05:24:03;101326.22;;;10.02;72.26
39773;BME280;25451;51.960;6.250;2023-04-07T05:26:29;101344.41;;;10.10;72.34
39773;BME280;25451;51.960;6.250;2023-04-07T05:28:54;101339.09;;;10.09;72.26
39773;BME280;25451;51.960;6.250;2023-04-07T05:31:19;101338.50;;;10.07;72.39
39773;BME280;25451;51.960;6.250;2023-04-07T05:33:45;101343.78;;;10.08;72.34
39773;BME280;25451;51.960;6.250;2023-04-07T05:36:10;101342.72;;;10.09;72.22
39773;BME280;25451;51.960;6.250;2023-04-07T05:38:35;101340.41;;;10.06;72.19
39773;BME280;25451;51.960;6.250;2023-04-07T05:41:01;101349.94;;;10.10;72.29
39773;BME280;25451;51.960;6.250;2023-04-07T05:43:26;101348.22;;;10.09;72.22
39773;BME280;25451;51.960;6.250;2023-04-07T05:45:51;101344.00;;;10.07;72.04
39773;BME280;25451;51.960;6.250;2023-04-07T05:48:16;101345.09;;;10.06;72.13
39773;BME280;25451;51.960;6.250;2023-04-07T05:50:42;101355.25;;;10.12;72.16
39773;BME280;25451;51.960;6.250;2023-04-07T05:53:07;101356.50;;;10.09;72.16
39773;BME280;25451;51.960;6.250;2023-04-07T05:55:33;101358.41;;;10.09;72.00
39773;BME280;25451;51.960;6.250;2023-04-07T05:57:58;101358.63;;;10.14;72.19
39773;BME280;25451;51.960;6.250;2023-04-07T06:00:24;101366.03;;;10.13;72.17
39773;BME280;25451;51.960;6.250;2023-04-07T06:02:49;101363.72;;;10.10;72.23
39773;BME280;25451;51.960;6.250;2023-04-07T06:05:14;101361.38;;;10.14;72.25
39773;BME280;25451;51.960;6.250;2023-04-07T06:07:40;101368.56;;;10.15;72.25
39773;BME280;25451;51.960;6.250;2023-04-07T06:10:06;101367.94;;;10.13;72.19
39773;BME280;25451;51.960;6.250;2023-04-07T06:12:31;101366.28;;;10.12;72.11
39773;BME280;25451;51.960;6.250;2023-04-07T06:14:58;101375.78;;;10.16;72.42
39773;BME280;25451;51.960;6.250;2023-04-07T06:17:23;101375.78;;;10.16;72.18
39773;BME280;25451;51.960;6.250;2023-04-07T06:19:49;101378.53;;;10.16;72.20
39773;BME280;25451;51.960;6.250;2023-04-07T06:22:14;101376.59;;;10.16;72.15
39773;BME280;25451;51.960;6.250;2023-04-07T06:24:39;101374.94;;;10.15;72.11
39773;BME280;25451;51.960;6.250;2023-04-07T06:27:05;101383.59;;;10.19;72.19
39773;BME280;25451;51.960;6.250;2023-04-07T06:29:31;101379.97;;;10.18;72.22
39773;BME280;25451;51.960;6.250;2023-04-07T06:31:57;101382.72;;;10.18;72.19
39773;BME280;25451;51.960;6.250;2023-04-07T06:34:22;101394.19;;;10.22;71.91
39773;BME280;25451;51.960;6.250;2023-04-07T06:36:48;101381.69;;;10.19;72.29
39773;BME280;25451;51.960;6.250;2023-04-07T06:39:13;101395.00;;;10.22;72.27
39773;BME280;25451;51.960;6.250;2023-04-07T06:41:38;101388.03;;;10.20;72.25
39773;BME280;25451;51.960;6.250;2023-04-07T06:44:08;101391.41;;;10.22;72.12
39773;BME280;25451;51.960;6.250;2023-04-07T06:46:33;101399.00;;;10.26;72.47
39773;BME280;25451;51.960;6.250;2023-04-07T06:48:58;101397.31;;;10.25;72.45
39773;BME280;25451;51.960;6.250;2023-04-07T06:51:24;101398.78;;;10.28;72.19
39773;BME280;25451;51.960;6.250;2023-04-07T06:53:50;101410.44;;;10.30;72.34
39773;BME280;25451;51.960;6.250;2023-04-07T06:56:16;101405.81;;;10.24;72.04
39773;BME280;25451;51.960;6.250;2023-04-07T06:58:41;101403.06;;;10.24;72.45
39773;BME280;25451;51.960;6.250;2023-04-07T07:01:07;101417.63;;;10.31;72.51
39773;BME280;25451;51.960;6.250;2023-04-07T07:03:32;101406.59;;;10.31;72.44
39773;BME280;25451;51.960;6.250;2023-04-07T07:05:58;101411.91;;;10.32;72.44
39773;BME280;25451;51.960;6.250;2023-04-07T07:08:25;101402.59;;;10.27;72.55
39773;BME280;25451;51.960;6.250;2023-04-07T07:10:50;101416.31;;;10.33;72.81
39773;BME280;25451;51.960;6.250;2023-04-07T07:13:20;101416.09;;;10.35;72.85
39773;BME280;25451;51.960;6.250;2023-04-07T07:15:47;101399.00;;;10.26;72.96
39773;BME280;25451;51.960;6.250;2023-04-07T07:18:12;101417.19;;;10.34;72.90
39773;BME280;25451;51.960;6.250;2023-04-07T07:20:38;101420.31;;;10.37;72.90
39773;BME280;25451;51.960;6.250;2023-04-07T07:23:03;101412.09;;;10.31;72.92
39773;BME280;25451;51.960;6.250;2023-04-07T07:25:28;101434.50;;;10.41;72.76
39773;BME280;25451;51.960;6.250;2023-04-07T07:27:54;101429.81;;;10.41;72.78
39773;BME280;25451;51.960;6.250;2023-04-07T07:30:20;101424.31;;;10.41;72.94
39773;BME280;25451;51.960;6.250;2023-04-07T07:32:46;101436.56;;;10.45;72.96
39773;BME280;25451;51.960;6.250;2023-04-07T07:35:11;101428.53;;;10.44;73.06
39773;BME280;25451;51.960;6.250;2023-04-07T07:37:36;101432.50;;;10.48;73.21
39773;BME280;25451;51.960;6.250;2023-04-07T07:40:02;101434.44;;;10.47;72.94
39773;BME280;25451;51.960;6.250;2023-04-07T07:42:29;101442.25;;;10.50;73.02
39773;BME280;25451;51.960;6.250;2023-04-07T07:44:55;101443.25;;;10.56;72.68
39773;BME280;25451;51.960;6.250;2023-04-07T07:47:20;101420.88;;;10.46;73.03
39773;BME280;25451;51.960;6.250;2023-04-07T07:49:45;101437.72;;;10.56;72.96
39773;BME280;25451;51.960;6.250;2023-04-07T07:52:11;101441.72;;;10.60;73.08
39773;BME280;25451;51.960;6.250;2023-04-07T07:54:36;101436.88;;;10.55;73.03
39773;BME280;25451;51.960;6.250;2023-04-07T07:57:01;101446.56;;;10.64;73.08
39773;BME280;25451;51.960;6.250;2023-04-07T07:59:27;101447.38;;;10.65;73.27
39773;BME280;25451;51.960;6.250;2023-04-07T08:01:53;101443.56;;;10.66;73.17
39773;BME280;25451;51.960;6.250;2023-04-07T08:04:18;101440.00;;;10.59;73.20
39773;BME280;25451;51.960;6.250;2023-04-07T08:06:43;101455.44;;;10.66;73.12
39773;BME280;25451;51.960;6.250;2023-04-07T08:09:08;101440.00;;;10.59;73.30
39773;BME280;25451;51.960;6.250;2023-04-07T08:11:34;101450.38;;;10.63;73.25
39773;BME280;25451;51.960;6.250;2023-04-07T08:13:59;101458.66;;;10.63;73.50
39773;BME280;25451;51.960;6.250;2023-04-07T08:16:25;101475.16;;;10.70;73.22
39773;BME280;25451;51.960;6.250;2023-04-07T08:18:51;101469.16;;;10.73;73.35
39773;BME280;25451;51.960;6.250;2023-04-07T08:21:16;101469.63;;;10.70;73.30
39773;BME280;25451;51.960;6.250;2023-04-07T08:23:41;101463.50;;;10.68;73.40
39773;BME280;25451;51.960;6.250;2023-04-07T08:26:07;101473.63;;;10.74;73.26
39773;BME280;25451;51.960;6.250;2023-04-07T08:28:32;101466.03;;;10.69;73.40
39773;BME280;25451;51.960;6.250;2023-04-07T08:30:58;101485.22;;;10.82;73.25
39773;BME280;25451;51.960;6.250;2023-04-07T08:33:24;101476.56;;;10.79;73.27
39773;BME280;25451;51.960;6.250;2023-04-07T08:35:50;101484.97;;;10.84;73.58
39773;BME280;25451;51.960;6.250;2023-04-07T08:38:15;101492.56;;;10.89;73.49
39773;BME280;25451;51.960;6.250;2023-04-07T08:40:41;101480.31;;;10.84;73.49
39773;BME280;25451;51.960;6.250;2023-04-07T08:43:08;101497.41;;;10.93;73.41
39773;BME280;25451;51.960;6.250;2023-04-07T08:45:37;101498.03;;;10.95;73.43
39773;BME280;25451;51.960;6.250;2023-04-07T08:48:10;101495.03;;;10.97;73.45
39773;BME280;25451;51.960;6.250;2023-04-07T08:50:39;101501.16;;;10.99;73.45
39773;BME280;25451;51.960;6.250;2023-04-07T08:53:07;101496.25;;;11.01;73.29
39773;BME280;25451;51.960;6.250;2023-04-07T08:55:34;101496.00;;;11.02;73.52
39773;BME280;25451;51.960;6.250;2023-04-07T08:58:00;101504.66;;;11.06;73.23
39773;BME280;25451;51.960;6.250;2023-04-07T09:00:26;101505.88;;;11.10;73.37
39773;BME280;25451;51.960;6.250;2023-04-07T09:02:52;101510.13;;;11.12;73.55
39773;BME280;25451;51.960;6.250;2023-04-07T09:05:17;101506.50;;;11.12;73.56
39773;BME280;25451;51.960;6.250;2023-04-07T09:07:43;101481.44;;;10.95;73.49
39773;BME280;25451;51.960;6.250;2023-04-07T09:10:08;101510.50;;;11.16;73.30
39773;BME280;25451;51.960;6.250;2023-04-07T09:12:34;101500.78;;;11.13;73.54
39773;BME280;25451;51.960;6.250;2023-04-07T09:15:00;101508.75;;;11.21;73.42
39773;BME280;25451;51.960;6.250;2023-04-07T09:17:26;101511.13;;;11.18;73.44
39773;BME280;25451;51.960;6.250;2023-04-07T09:19:57;101524.84;;;11.24;73.47
39773;BME280;25451;51.960;6.250;2023-04-07T09:22:37;101521.03;;;11.25;73.46
39773;BME280;25451;51.960;6.250;2023-04-07T09:25:14;101530.97;;;11.26;73.37
39773;BME280;25451;51.960;6.250;2023-04-07T09:27:40;101520.66;;;11.22;73.55
39773;BME280;25451;51.960;6.250;2023-04-07T09:30:13;101537.13;;;11.28;73.52
39773;BME280;25451;51.960;6.250;2023-04-07T09:32:40;101534.34;;;11.28;73.42
39773;BME280;25451;51.960;6.250;2023-04-07T09:35:05;101528.63;;;11.30;73.38
39773;BME280;25451;51.960;6.250;2023-04-07T09:37:31;101524.63;;;11.26;73.41
39773;BME280;25451;51.960;6.250;2023-04-07T09:39:56;101534.50;;;11.33;73.52
39773;BME280;25451;51.960;6.250;2023-04-07T09:42:22;101530.03;;;11.32;73.38
39773;BME280;25451;51.960;6.250;2023-04-07T09:44:47;101528.13;;;11.33;73.30
39773;BME280;25451;51.960;6.250;2023-04-07T09:47:12;101531.06;;;11.38;73.64
39773;BME280;25451;51.960;6.250;2023-04-07T09:49:52;101534.03;;;11.36;73.27
39773;BME280;25451;51.960;6.250;2023-04-07T09:52:21;101536.34;;;11.39;73.60
39773;BME280;25451;51.960;6.250;2023-04-07T09:54:47;101527.69;;;11.36;73.42
39773;BME280;25451;51.960;6.250;2023-04-07T09:57:13;101527.69;;;11.36;73.64
39773;BME280;25451;51.960;6.250;2023-04-07T09:59:40;101526.34;;;11.38;73.42
39773;BME280;25451;51.960;6.250;2023-04-07T10:02:09;101539.03;;;11.46;73.47
39773;BME280;25451;51.960;6.250;2023-04-07T10:04:35;101539.66;;;11.48;73.53
39773;BME280;25451;51.960;6.250;2023-04-07T10:07:01;101541.31;;;11.49;73.65
39773;BME280;25451;51.960;6.250;2023-04-07T10:09:28;101530.88;;;11.51;73.61
39773;BME280;25451;51.960;6.250;2023-04-07T10:11:55;101541.94;;;11.51;73.53
39773;BME280;25451;51.960;6.250;2023-04-07T10:14:25;101531.56;;;11.46;73.82
39773;BME280;25451;51.960;6.250;2023-04-07T10:16:51;101552.13;;;11.50;73.57
39773;BME280;25451;51.960;6.250;2023-04-07T10:19:18;101543.47;;;11.47;73.69
39773;BME280;25451;51.960;6.250;2023-04-07T10:21:44;101549.84;;;11.47;73.90
39773;BME280;25451;51.960;6.250;2023-04-07T10:27:16;101552.63;;;11.47;73.88
39773;BME280;25451;51.960;6.250;2023-04-07T10:29:43;101546.84;;;11.49;74.08
39773;BME280;25451;51.960;6.250;2023-04-07T10:32:10;101552.38;;;11.49;74.00
39773;BME280;25451;51.960;6.250;2023-04-07T10:37:14;101566.13;;;11.55;73.93
39773;BME280;25451;51.960;6.250;2023-04-07T10:39:43;101558.44;;;11.57;73.92
39773;BME280;25451;51.960;6.250;2023-04-07T10:45:06;101559.88;;;11.60;74.15
39773;BME280;25451;51.960;6.250;2023-04-07T10:47:32;101560.25;;;11.63;74.19
39773;BME280;25451;51.960;6.250;2023-04-07T10:50:17;101569.34;;;11.71;74.08
39773;BME280;25451;51.960;6.250;2023-04-07T10:52:45;101565.50;;;11.72;74.24
39773;BME280;25451;51.960;6.250;2023-04-07T10:55:30;101570.09;;;11.78;74.19
39773;BME280;25451;51.960;6.250;2023-04-07T10:58:18;101571.31;;;11.82;73.91
39773;BME280;25451;51.960;6.250;2023-04-07T11:03:23;101567.22;;;11.84;74.26
39773;BME280;25451;51.960;6.250;2023-04-07T11:05:49;101571.59;;;11.92;74.39
39773;BME280;25451;51.960;6.250;2023-04-07T11:08:14;101575.19;;;11.92;74.10
39773;BME280;25451;51.960;6.250;2023-04-07T11:10:46;101574.50;;;11.97;74.38
39773;BME280;25451;51.960;6.250;2023-04-07T11:13:12;101568.97;;;11.97;74.36
39773;BME280;25451;51.960;6.250;2023-04-07T11:15:37;101578.59;;;12.06;74.15
39773;BME280;25451;51.960;6.250;2023-04-07T11:18:10;101576.94;;;12.05;74.16
39773;BME280;25451;51.960;6.250;2023-04-07T11:20:51;101581.53;;;12.11;74.44
39773;BME280;25451;51.960;6.250;2023-04-07T11:23:18;101579.47;;;12.18;74.39
39773;BME280;25451;51.960;6.250;2023-04-07T11:25:46;101577.91;;;12.22;74.43
39773;BME280;25451;51.960;6.250;2023-04-07T11:28:13;101592.03;;;12.32;74.13
39773;BME280;25451;51.960;6.250;2023-04-07T11:30:48;101588.78;;;12.35;74.44
39773;BME280;25451;51.960;6.250;2023-04-07T11:33:15;101572.19;;;12.35;74.25
39773;BME280;25451;51.960;6.250;2023-04-07T11:36:01;101594.94;;;12.48;74.46
39773;BME280;25451;51.960;6.250;2023-04-07T11:38:34;101583.50;;;12.45;74.01
39773;BME280;25451;51.960;6.250;2023-04-07T11:41:12;101596.28;;;12.58;73.95
39773;BME280;25451;51.960;6.250;2023-04-07T11:43:37;101599.66;;;12.60;74.10
39773;BME280;25451;51.960;6.250;2023-04-07T11:46:13;101596.28;;;12.58;74.09
39773;BME280;25451;51.960;6.250;2023-04-07T11:48:41;101594.38;;;12.58;74.23
39773;BME280;25451;51.960;6.250;2023-04-07T11:51:18;101601.47;;;12.66;74.31
39773;BME280;25451;51.960;6.250;2023-04-07T11:53:44;101597.41;;;12.68;74.51
39773;BME280;25451;51.960;6.250;2023-04-07T11:56:12;101602.44;;;12.71;74.45
39773;BME280;25451;51.960;6.250;2023-04-07T11:58:53;101601.38;;;12.72;74.29
39773;BME280;25451;51.960;6.250;2023-04-07T12:01:19;101598.81;;;12.71;74.51
39773;BME280;25451;51.960;6.250;2023-04-07T12:03:59;101603.66;;;12.75;74.36
39773;BME280;25451;51.960;6.250;2023-04-07T12:06:34;101606.31;;;12.82;74.65
39773;BME280;25451;51.960;6.250;2023-04-07T12:09:03;101616.88;;;12.85;74.30
39773;BME280;25451;51.960;6.250;2023-04-07T12:11:29;101612.69;;;12.82;74.35
39773;BME280;25451;51.960;6.250;2023-04-07T12:13:56;101612.19;;;12.85;74.48
39773;BME280;25451;51.960;6.250;2023-04-07T12:16:22;101609.69;;;12.84;74.66
39773;BME280;25451;51.960;6.250;2023-04-07T12:18:47;101606.78;;;12.79;74.54
39773;BME280;25451;51.960;6.250;2023-04-07T12:21:13;101630.88;;;12.90;74.20
39773;BME280;25451;51.960;6.250;2023-04-07T12:23:38;101624.84;;;12.81;74.73
39773;BME280;25451;51.960;6.250;2023-04-07T12:26:04;101626.19;;;12.90;74.65
39773;BME280;25451;51.960;6.250;2023-04-07T12:28:29;101630.03;;;12.89;74.39
39773;BME280;25451;51.960;6.250;2023-04-07T12:30:55;101622.44;;;12.85;74.56
39773;BME280;25451;51.960;6.250;2023-04-07T12:33:20;101633.91;;;12.88;74.65
39773;BME280;25451;51.960;6.250;2023-04-07T12:35:46;101630.53;;;12.86;74.61
39773;BME280;25451;51.960;6.250;2023-04-07T12:38:11;101637.28;;;12.90;74.75
39773;BME280;25451;51.960;6.250;2023-04-07T12:40:37;101639.19;;;12.90;74.40
39773;BME280;25451;51.960;6.250;2023-04-07T12:43:03;101636.06;;;12.86;74.64
39773;BME280;25451;51.960;6.250;2023-04-07T12:45:29;101649.56;;;12.94;74.37
39773;BME280;25451;51.960;6.250;2023-04-07T12:47:55;101646.66;;;12.89;74.70
39773;BME280;25451;51.960;6.250;2023-04-07T12:50:20;101638.94;;;12.91;74.56
39773;BME280;25451;51.960;6.250;2023-04-07T12:52:46;101592.69;;;12.57;74.30
39773;BME280;25451;51.960;6.250;2023-04-07T12:55:12;101642.31;;;12.93;74.58
39773;BME280;25451;51.960;6.250;2023-04-07T12:57:38;101655.47;;;12.98;74.22
39773;BME280;25451;51.960;6.250;2023-04-07T13:00:04;101651.84;;;12.97;74.45
39773;BME280;25451;51.960;6.250;2023-04-07T13:02:30;101662.91;;;12.97;74.49